sensor_id;sensor_type;location;lat;lon;timestamp;temperature;humidity
40996;DHT22;26723;57.478;12.066;2023-03-14T00:01:44;6.90;99.90
40996;DHT22;26723;57.478;12.066;2023-03-14T00:04:54;6.90;99.90
40996;DHT22;26723;57.478;12.066;2023-03-14T00:08:03;6.90;99.90
40996;DHT22;26723;57.478;12.066;2023-03-14T00:11:15;6.90;99.90
40996;DHT22;26723;57.478;12.066;2023-03-14T00:14:24;6.90;99.90
40996;DHT22;26723;57.478;12.066;2023-03-14T00:17:33;6.90;99.90
40996;DHT22;26723;57.478;12.066;2023-03-14T00:20:42;6.90;99.90
40996;DHT22;26723;57.478;12.066;2023-03-14T00:23:50;6.80;99.90
40996;DHT22;26723;57.478;12.066;2023-03-14T00:27:00;6.80;99.90
40996;DHT22;26723;57.478;12.066;2023-03-14T00:30:10;6.80;99.90
40996;DHT22;26723;57.478;12.066;2023-03-14T00:33:18;6.80;99.90
40996;DHT22;26723;57.478;12.066;2023-03-14T00:36:27;6.80;99.90
40996;DHT22;26723;57.478;12.066;2023-03-14T00:39:35;6.80;99.90
40996;DHT22;26723;57.478;12.066;2023-03-14T00:42:45;6.80;99.90
40996;DHT22;26723;57.478;12.066;2023-03-14T00:45:53;6.80;99.90
40996;DHT22;26723;57.478;12.066;2023-03-14T00:49:02;6.80;99.90
40996;DHT22;26723;57.478;12.066;2023-03-14T00:52:10;6.80;99.90
40996;DHT22;26723;57.478;12.066;2023-03-14T00:55:19;6.80;99.90
40996;DHT22;26723;57.478;12.066;2023-03-14T00:58:28;6.80;99.90
40996;DHT22;26723;57.478;12.066;2023-03-14T01:01:38;6.80;99.90
40996;DHT22;26723;57.478;12.066;2023-03-14T01:04:47;6.80;99.90
40996;DHT22;26723;57.478;12.066;2023-03-14T01:07:56;6.80;99.90
40996;DHT22;26723;57.478;12.066;2023-03-14T01:11:09;6.80;99.90
40996;DHT22;26723;57.478;12.066;2023-03-14T01:14:19;6.80;99.90
40996;DHT22;26723;57.478;12.066;2023-03-14T01:17:27;6.80;99.90
40996;DHT22;26723;57.478;12.066;2023-03-14T01:20:37;6.80;99.90
40996;DHT22;26723;57.478;12.066;2023-03-14T01:23:46;6.80;99.90
40996;DHT22;26723;57.478;12.066;2023-03-14T01:26:54;6.80;99.90
40996;DHT22;26723;57.478;12.066;2023-03-14T01:30:08;6.80;99.90
40996;DHT22;26723;57.478;12.066;2023-03-14T01:33:18;6.80;99.90
40996;DHT22;26723;57.478;12.066;2023-03-14T01:36:26;6.70;99.90
40996;DHT22;26723;57.478;12.066;2023-03-14T01:39:39;6.70;99.90
40996;DHT22;26723;57.478;12.066;2023-03-14T01:42:54;6.70;99.90
40996;DHT22;26723;57.478;12.066;2023-03-14T01:46:18;6.70;99.90
40996;DHT22;26723;57.478;12.066;2023-03-14T01:49:29;6.70;99.90
40996;DHT22;26723;57.478;12.066;2023-03-14T01:52:47;6.70;99.90
40996;DHT22;26723;57.478;12.066;2023-03-14T01:55:57;6.70;99.90
40996;DHT22;26723;57.478;12.066;2023-03-14T01:59:07;6.60;99.90
40996;DHT22;26723;57.478;12.066;2023-03-14T02:02:18;6.60;99.90
40996;DHT22;26723;57.478;12.066;2023-03-14T02:05:30;6.60;99.90
40996;DHT22;26723;57.478;12.066;2023-03-14T02:08:52;6.60;99.90
40996;DHT22;26723;57.478;12.066;2023-03-14T02:12:04;6.50;99.90
40996;DHT22;26723;57.478;12.066;2023-03-14T02:15:43;6.50;99.90
40996;DHT22;26723;57.478;12.066;2023-03-14T02:19:14;6.50;99.90
40996;DHT22;26723;57.478;12.066;2023-03-14T02:22:41;6.50;99.90
40996;DHT22;26723;57.478;12.066;2023-03-14T02:25:54;6.40;99.90
40996;DHT22;26723;57.478;12.066;2023-03-14T02:29:07;6.40;99.90
40996;DHT22;26723;57.478;12.066;2023-03-14T02:32:16;6.40;99.90
40996;DHT22;26723;57.478;12.066;2023-03-14T02:35:28;6.40;99.90
40996;DHT22;26723;57.478;12.066;2023-03-14T02:38:41;6.30;99.90
40996;DHT22;26723;57.478;12.066;2023-03-14T02:41:54;6.30;99.90
40996;DHT22;26723;57.478;12.066;2023-03-14T02:48:55;6.20;99.90
40996;DHT22;26723;57.478;12.066;2023-03-14T02:52:05;6.20;99.90
40996;DHT22;26723;57.478;12.066;2023-03-14T02:55:14;6.20;99.90
40996;DHT22;26723;57.478;12.066;2023-03-14T02:58:24;6.10;99.90
40996;DHT22;26723;57.478;12.066;2023-03-14T03:01:39;6.10;99.90
40996;DHT22;26723;57.478;12.066;2023-03-14T03:04:49;6.00;99.90
40996;DHT22;26723;57.478;12.066;2023-03-14T03:07:58;6.00;99.90
40996;DHT22;26723;57.478;12.066;2023-03-14T03:11:06;5.90;99.90
40996;DHT22;26723;57.478;12.066;2023-03-14T03:14:15;5.90;99.90
40996;DHT22;26723;57.478;12.066;2023-03-14T03:17:24;5.80;99.90
40996;DHT22;26723;57.478;12.066;2023-03-14T03:20:33;5.80;99.90
40996;DHT22;26723;57.478;12.066;2023-03-14T03:23:42;5.80;99.90
40996;DHT22;26723;57.478;12.066;2023-03-14T03:26:50;5.80;99.90
40996;DHT22;26723;57.478;12.066;2023-03-14T03:29:59;5.80;99.90
40996;DHT22;26723;57.478;12.066;2023-03-14T03:33:11;5.80;99.90
40996;DHT22;26723;57.478;12.066;2023-03-14T03:36:26;5.70;99.90
40996;DHT22;26723;57.478;12.066;2023-03-14T03:39:34;5.70;99.90
40996;DHT22;26723;57.478;12.066;2023-03-14T03:42:43;5.70;99.90
40996;DHT22;26723;57.478;12.066;2023-03-14T03:45:51;5.70;99.90
40996;DHT22;26723;57.478;12.066;2023-03-14T03:49:02;5.70;99.90
40996;DHT22;26723;57.478;12.066;2023-03-14T03:52:12;5.70;99.90
40996;DHT22;26723;57.478;12.066;2023-03-14T03:55:21;5.60;99.90
40996;DHT22;26723;57.478;12.066;2023-03-14T03:58:29;5.60;99.90
40996;DHT22;26723;57.478;12.066;2023-03-14T04:01:38;5.50;99.90
40996;DHT22;26723;57.478;12.066;2023-03-14T04:04:46;5.50;99.90
40996;DHT22;26723;57.478;12.066;2023-03-14T04:07:56;5.60;99.90
40996;DHT22;26723;57.478;12.066;2023-03-14T04:11:07;5.60;99.90
40996;DHT22;26723;57.478;12.066;2023-03-14T04:14:34;5.60;99.90
40996;DHT22;26723;57.478;12.066;2023-03-14T04:17:56;5.50;99.90
40996;DHT22;26723;57.478;12.066;2023-03-14T04:21:05;5.50;99.90
40996;DHT22;26723;57.478;12.066;2023-03-14T04:24:24;5.40;99.90
40996;DHT22;26723;57.478;12.066;2023-03-14T04:27:35;5.40;99.90
40996;DHT22;26723;57.478;12.066;2023-03-14T04:30:49;5.50;99.90
40996;DHT22;26723;57.478;12.066;2023-03-14T04:34:03;5.50;99.90
40996;DHT22;26723;57.478;12.066;2023-03-14T04:37:20;5.50;99.90
40996;DHT22;26723;57.478;12.066;2023-03-14T04:40:29;5.50;99.90
40996;DHT22;26723;57.478;12.066;2023-03-14T04:43:43;5.50;99.90
40996;DHT22;26723;57.478;12.066;2023-03-14T04:46:53;5.50;99.90
40996;DHT22;26723;57.478;12.066;2023-03-14T04:50:02;5.40;99.90
40996;DHT22;26723;57.478;12.066;2023-03-14T04:53:10;5.40;99.90
40996;DHT22;26723;57.478;12.066;2023-03-14T04:56:23;5.30;99.90
40996;DHT22;26723;57.478;12.066;2023-03-14T04:59:32;5.30;99.90
40996;DHT22;26723;57.478;12.066;2023-03-14T05:02:52;5.30;99.90
40996;DHT22;26723;57.478;12.066;2023-03-14T05:06:07;5.20;99.90
40996;DHT22;26723;57.478;12.066;2023-03-14T05:09:39;5.20;99.90
40996;DHT22;26723;57.478;12.066;2023-03-14T05:13:27;5.20;99.90
40996;DHT22;26723;57.478;12.066;2023-03-14T05:17:02;5.10;99.90
40996;DHT22;26723;57.478;12.066;2023-03-14T05:20:19;5.00;99.90
40996;DHT22;26723;57.478;12.066;2023-03-14T05:24:00;5.00;99.90
40996;DHT22;26723;57.478;12.066;2023-03-14T05:27:36;5.00;99.90
40996;DHT22;26723;57.478;12.066;2023-03-14T05:31:24;4.90;99.90
40996;DHT22;26723;57.478;12.066;2023-03-14T05:35:02;4.80;99.90
40996;DHT22;26723;57.478;12.066;2023-03-14T05:38:19;4.70;99.90
40996;DHT22;26723;57.478;12.066;2023-03-14T05:41:47;4.70;99.90
40996;DHT22;26723;57.478;12.066;2023-03-14T05:45:14;4.60;99.90
40996;DHT22;26723;57.478;12.066;2023-03-14T05:48:44;4.60;99.90
40996;DHT22;26723;57.478;12.066;2023-03-14T05:52:02;4.50;99.90
40996;DHT22;26723;57.478;12.066;2023-03-14T05:55:17;4.50;99.90
40996;DHT22;26723;57.478;12.066;2023-03-14T05:58:48;4.40;99.90
40996;DHT22;26723;57.478;12.066;2023-03-14T06:02:06;4.50;99.90
40996;DHT22;26723;57.478;12.066;2023-03-14T06:05:26;4.50;99.90
40996;DHT22;26723;57.478;12.066;2023-03-14T06:08:39;4.50;99.90
40996;DHT22;26723;57.478;12.066;2023-03-14T06:11:50;4.40;99.90
40996;DHT22;26723;57.478;12.066;2023-03-14T06:14:59;4.40;99.90
40996;DHT22;26723;57.478;12.066;2023-03-14T06:18:07;4.40;99.90
40996;DHT22;26723;57.478;12.066;2023-03-14T06:21:17;4.50;99.90
40996;DHT22;26723;57.478;12.066;2023-03-14T06:24:28;4.50;99.90
40996;DHT22;26723;57.478;12.066;2023-03-14T06:27:37;4.50;99.90
40996;DHT22;26723;57.478;12.066;2023-03-14T06:30:45;4.50;99.90
40996;DHT22;26723;57.478;12.066;2023-03-14T06:33:55;4.50;99.90
40996;DHT22;26723;57.478;12.066;2023-03-14T06:37:09;4.50;99.90
40996;DHT22;26723;57.478;12.066;2023-03-14T06:40:18;4.50;99.90
40996;DHT22;26723;57.478;12.066;2023-03-14T06:43:34;4.60;99.90
40996;DHT22;26723;57.478;12.066;2023-03-14T06:46:44;4.50;99.90
40996;DHT22;26723;57.478;12.066;2023-03-14T06:49:52;4.60;99.90
40996;DHT22;26723;57.478;12.066;2023-03-14T06:53:03;4.60;99.90
40996;DHT22;26723;57.478;12.066;2023-03-14T06:56:14;4.60;99.90
40996;DHT22;26723;57.478;12.066;2023-03-14T06:59:23;4.60;99.90
40996;DHT22;26723;57.478;12.066;2023-03-14T07:02:31;4.60;99.90
40996;DHT22;26723;57.478;12.066;2023-03-14T07:05:58;4.60;99.90
40996;DHT22;26723;57.478;12.066;2023-03-14T07:09:08;4.60;99.90
40996;DHT22;26723;57.478;12.066;2023-03-14T07:12:20;4.60;99.90
40996;DHT22;26723;57.478;12.066;2023-03-14T07:15:29;4.60;99.90
40996;DHT22;26723;57.478;12.066;2023-03-14T07:18:43;4.60;99.90
40996;DHT22;26723;57.478;12.066;2023-03-14T07:21:51;4.60;99.90
40996;DHT22;26723;57.478;12.066;2023-03-14T07:25:06;4.60;99.90
40996;DHT22;26723;57.478;12.066;2023-03-14T07:28:17;4.60;99.90
40996;DHT22;26723;57.478;12.066;2023-03-14T07:31:27;4.60;99.90
40996;DHT22;26723;57.478;12.066;2023-03-14T07:34:36;4.60;99.90
40996;DHT22;26723;57.478;12.066;2023-03-14T07:37:44;4.70;99.90
40996;DHT22;26723;57.478;12.066;2023-03-14T07:40:59;4.70;99.90
40996;DHT22;26723;57.478;12.066;2023-03-14T07:44:11;4.70;99.90
40996;DHT22;26723;57.478;12.066;2023-03-14T07:47:20;4.70;99.90
40996;DHT22;26723;57.478;12.066;2023-03-14T07:50:28;4.70;99.90
40996;DHT22;26723;57.478;12.066;2023-03-14T07:53:36;4.70;99.90
40996;DHT22;26723;57.478;12.066;2023-03-14T07:56:47;4.70;99.90
40996;DHT22;26723;57.478;12.066;2023-03-14T07:59:56;4.60;99.90
40996;DHT22;26723;57.478;12.066;2023-03-14T08:03:04;4.50;99.90
40996;DHT22;26723;57.478;12.066;2023-03-14T08:06:12;4.60;99.90
40996;DHT22;26723;57.478;12.066;2023-03-14T08:09:21;4.60;99.90
40996;DHT22;26723;57.478;12.066;2023-03-14T08:12:31;4.60;99.90
40996;DHT22;26723;57.478;12.066;2023-03-14T08:15:39;4.70;99.90
40996;DHT22;26723;57.478;12.066;2023-03-14T08:18:49;4.70;99.90
40996;DHT22;26723;57.478;12.066;2023-03-14T08:21:57;4.80;99.90
40996;DHT22;26723;57.478;12.066;2023-03-14T08:25:06;4.80;99.90
40996;DHT22;26723;57.478;12.066;2023-03-14T08:28:16;4.90;99.90
40996;DHT22;26723;57.478;12.066;2023-03-14T08:31:24;4.90;99.90
40996;DHT22;26723;57.478;12.066;2023-03-14T08:34:33;5.20;99.90
40996;DHT22;26723;57.478;12.066;2023-03-14T08:37:42;5.70;99.90
40996;DHT22;26723;57.478;12.066;2023-03-14T08:40:55;6.20;99.90
40996;DHT22;26723;57.478;12.066;2023-03-14T08:44:06;6.30;99.90
40996;DHT22;26723;57.478;12.066;2023-03-14T08:47:14;6.90;99.90
40996;DHT22;26723;57.478;12.066;2023-03-14T08:50:23;7.60;99.90
40996;DHT22;26723;57.478;12.066;2023-03-14T08:53:31;8.10;99.90
40996;DHT22;26723;57.478;12.066;2023-03-14T08:56:40;8.20;99.90
40996;DHT22;26723;57.478;12.066;2023-03-14T08:59:50;8.10;99.90
40996;DHT22;26723;57.478;12.066;2023-03-14T09:02:58;8.40;99.90
40996;DHT22;26723;57.478;12.066;2023-03-14T09:06:08;9.30;99.90
40996;DHT22;26723;57.478;12.066;2023-03-14T09:09:17;9.60;99.90
40996;DHT22;26723;57.478;12.066;2023-03-14T09:12:25;10.00;99.90
40996;DHT22;26723;57.478;12.066;2023-03-14T09:15:35;10.00;99.90
40996;DHT22;26723;57.478;12.066;2023-03-14T09:18:44;10.50;99.90
40996;DHT22;26723;57.478;12.066;2023-03-14T09:21:52;10.60;99.90
40996;DHT22;26723;57.478;12.066;2023-03-14T09:25:01;11.10;99.90
40996;DHT22;26723;57.478;12.066;2023-03-14T09:28:10;11.30;99.90
40996;DHT22;26723;57.478;12.066;2023-03-14T09:31:19;12.50;99.90
40996;DHT22;26723;57.478;12.066;2023-03-14T09:34:28;12.90;99.90
40996;DHT22;26723;57.478;12.066;2023-03-14T09:37:36;12.20;99.90
40996;DHT22;26723;57.478;12.066;2023-03-14T09:40:45;10.80;99.90
40996;DHT22;26723;57.478;12.066;2023-03-14T09:44:00;10.40;99.90
40996;DHT22;26723;57.478;12.066;2023-03-14T09:47:13;9.70;99.90
40996;DHT22;26723;57.478;12.066;2023-03-14T09:50:23;9.70;99.90
40996;DHT22;26723;57.478;12.066;2023-03-14T09:53:37;10.20;99.90
40996;DHT22;26723;57.478;12.066;2023-03-14T09:56:47;10.10;99.90
40996;DHT22;26723;57.478;12.066;2023-03-14T09:59:58;10.10;99.90
40996;DHT22;26723;57.478;12.066;2023-03-14T10:03:26;10.00;99.90
40996;DHT22;26723;57.478;12.066;2023-03-14T10:06:35;10.10;99.90
40996;DHT22;26723;57.478;12.066;2023-03-14T10:09:45;9.60;99.90
40996;DHT22;26723;57.478;12.066;2023-03-14T10:12:58;9.20;99.90
40996;DHT22;26723;57.478;12.066;2023-03-14T10:16:07;8.70;99.90
40996;DHT22;26723;57.478;12.066;2023-03-14T10:19:17;9.20;99.90
40996;DHT22;26723;57.478;12.066;2023-03-14T10:22:27;9.10;99.90
40996;DHT22;26723;57.478;12.066;2023-03-14T10:25:39;9.00;99.90
40996;DHT22;26723;57.478;12.066;2023-03-14T10:28:51;8.90;99.90
40996;DHT22;26723;57.478;12.066;2023-03-14T10:32:02;8.60;99.90
40996;DHT22;26723;57.478;12.066;2023-03-14T10:35:22;8.60;99.90
40996;DHT22;26723;57.478;12.066;2023-03-14T10:38:32;8.10;99.90
40996;DHT22;26723;57.478;12.066;2023-03-14T10:41:47;8.20;99.90
40996;DHT22;26723;57.478;12.066;2023-03-14T10:44:59;8.70;99.90
40996;DHT22;26723;57.478;12.066;2023-03-14T10:48:20;8.80;99.90
40996;DHT22;26723;57.478;12.066;2023-03-14T10:51:30;8.50;99.90
40996;DHT22;26723;57.478;12.066;2023-03-14T10:54:39;8.40;99.90
40996;DHT22;26723;57.478;12.066;2023-03-14T10:57:47;8.60;99.90
40996;DHT22;26723;57.478;12.066;2023-03-14T11:01:03;8.60;99.90
40996;DHT22;26723;57.478;12.066;2023-03-14T11:04:21;8.70;99.90
40996;DHT22;26723;57.478;12.066;2023-03-14T11:07:37;8.40;99.90
40996;DHT22;26723;57.478;12.066;2023-03-14T11:10:49;8.40;99.90
40996;DHT22;26723;57.478;12.066;2023-03-14T11:14:12;8.90;99.90
40996;DHT22;26723;57.478;12.066;2023-03-14T11:17:27;9.20;99.90
40996;DHT22;26723;57.478;12.066;2023-03-14T11:20:42;9.20;99.90
40996;DHT22;26723;57.478;12.066;2023-03-14T11:24:04;9.00;99.90
40996;DHT22;26723;57.478;12.066;2023-03-14T11:27:19;8.50;99.90
40996;DHT22;26723;57.478;12.066;2023-03-14T11:30:34;8.30;99.90
40996;DHT22;26723;57.478;12.066;2023-03-14T11:33:48;8.20;99.90
40996;DHT22;26723;57.478;12.066;2023-03-14T11:37:03;8.30;99.90
40996;DHT22;26723;57.478;12.066;2023-03-14T11:40:17;8.50;99.90
40996;DHT22;26723;57.478;12.066;2023-03-14T11:43:28;8.70;99.90
40996;DHT22;26723;57.478;12.066;2023-03-14T11:46:39;8.30;99.90
40996;DHT22;26723;57.478;12.066;2023-03-14T11:49:53;7.90;99.90
40996;DHT22;26723;57.478;12.066;2023-03-14T11:53:04;7.50;99.90
40996;DHT22;26723;57.478;12.066;2023-03-14T11:56:19;7.80;99.90
40996;DHT22;26723;57.478;12.066;2023-03-14T11:59:33;8.00;99.90
40996;DHT22;26723;57.478;12.066;2023-03-14T12:02:52;8.20;99.90
40996;DHT22;26723;57.478;12.066;2023-03-14T12:06:09;8.00;99.90
40996;DHT22;26723;57.478;12.066;2023-03-14T12:09:21;8.00;99.90
40996;DHT22;26723;57.478;12.066;2023-03-14T12:12:32;8.00;99.90
40996;DHT22;26723;57.478;12.066;2023-03-14T12:15:43;7.80;99.90
40996;DHT22;26723;57.478;12.066;2023-03-14T12:18:54;7.70;99.90
40996;DHT22;26723;57.478;12.066;2023-03-14T12:22:14;7.50;99.90
40996;DHT22;26723;57.478;12.066;2023-03-14T12:25:27;7.60;99.90
40996;DHT22;26723;57.478;12.066;2023-03-14T12:28:38;7.60;99.90
40996;DHT22;26723;57.478;12.066;2023-03-14T12:31:47;7.60;99.90
40996;DHT22;26723;57.478;12.066;2023-03-14T12:34:56;7.40;99.90
40996;DHT22;26723;57.478;12.066;2023-03-14T12:38:17;7.80;99.90
40996;DHT22;26723;57.478;12.066;2023-03-14T12:41:37;7.90;99.90
40996;DHT22;26723;57.478;12.066;2023-03-14T12:44:49;8.00;99.90
40996;DHT22;26723;57.478;12.066;2023-03-14T12:48:08;7.60;99.90
40996;DHT22;26723;57.478;12.066;2023-03-14T12:51:19;7.50;99.90
40996;DHT22;26723;57.478;12.066;2023-03-14T12:54:36;7.60;99.90
40996;DHT22;26723;57.478;12.066;2023-03-14T12:57:55;7.40;99.90
40996;DHT22;26723;57.478;12.066;2023-03-14T13:01:15;7.30;99.90
40996;DHT22;26723;57.478;12.066;2023-03-14T13:04:30;7.10;99.90
40996;DHT22;26723;57.478;12.066;2023-03-14T13:08:06;7.10;99.90
40996;DHT22;26723;57.478;12.066;2023-03-14T13:11:16;6.80;99.90
40996;DHT22;26723;57.478;12.066;2023-03-14T13:14:28;6.60;99.90
40996;DHT22;26723;57.478;12.066;2023-03-14T13:17:40;6.60;99.90
40996;DHT22;26723;57.478;12.066;2023-03-14T13:20:53;6.60;99.90
40996;DHT22;26723;57.478;12.066;2023-03-14T13:24:04;6.50;99.90
40996;DHT22;26723;57.478;12.066;2023-03-14T13:27:17;6.60;99.90
40996;DHT22;26723;57.478;12.066;2023-03-14T13:30:29;6.70;99.90
40996;DHT22;26723;57.478;12.066;2023-03-14T13:33:45;6.50;99.90
40996;DHT22;26723;57.478;12.066;2023-03-14T13:36:54;6.70;99.90
40996;DHT22;26723;57.478;12.066;2023-03-14T13:40:03;6.40;99.90
40996;DHT22;26723;57.478;12.066;2023-03-14T13:43:15;6.60;99.90
40996;DHT22;26723;57.478;12.066;2023-03-14T13:46:24;6.60;99.90
40996;DHT22;26723;57.478;12.066;2023-03-14T13:49:37;6.50;99.90
40996;DHT22;26723;57.478;12.066;2023-03-14T13:52:46;6.70;99.90
40996;DHT22;26723;57.478;12.066;2023-03-14T13:55:55;6.70;99.90
40996;DHT22;26723;57.478;12.066;2023-03-14T13:59:04;6.50;99.90
40996;DHT22;26723;57.478;12.066;2023-03-14T14:02:13;6.40;99.90
40996;DHT22;26723;57.478;12.066;2023-03-14T14:05:28;6.30;99.90
40996;DHT22;26723;57.478;12.066;2023-03-14T14:08:41;6.30;99.90
40996;DHT22;26723;57.478;12.066;2023-03-14T14:11:54;6.50;99.90
40996;DHT22;26723;57.478;12.066;2023-03-14T14:15:23;6.50;99.90
40996;DHT22;26723;57.478;12.066;2023-03-14T14:18:34;6.50;99.90
40996;DHT22;26723;57.478;12.066;2023-03-14T14:21:45;6.40;99.90
40996;DHT22;26723;57.478;12.066;2023-03-14T14:24:53;6.20;99.90
40996;DHT22;26723;57.478;12.066;2023-03-14T14:28:15;6.00;99.90
40996;DHT22;26723;57.478;12.066;2023-03-14T14:31:23;5.70;99.90
40996;DHT22;26723;57.478;12.066;2023-03-14T14:34:39;5.40;99.90
40996;DHT22;26723;57.478;12.066;2023-03-14T14:37:51;5.20;99.90
40996;DHT22;26723;57.478;12.066;2023-03-14T14:41:01;5.40;99.90
40996;DHT22;26723;57.478;12.066;2023-03-14T14:44:12;5.40;99.90
40996;DHT22;26723;57.478;12.066;2023-03-14T14:47:23;5.40;99.90
40996;DHT22;26723;57.478;12.066;2023-03-14T14:50:34;5.20;99.90
40996;DHT22;26723;57.478;12.066;2023-03-14T14:53:44;5.20;99.90
40996;DHT22;26723;57.478;12.066;2023-03-14T14:57:02;5.30;99.90
40996;DHT22;26723;57.478;12.066;2023-03-14T15:00:18;5.30;99.90
40996;DHT22;26723;57.478;12.066;2023-03-14T15:03:29;5.20;99.90
40996;DHT22;26723;57.478;12.066;2023-03-14T15:06:38;5.40;99.90
40996;DHT22;26723;57.478;12.066;2023-03-14T15:09:48;5.40;99.90
40996;DHT22;26723;57.478;12.066;2023-03-14T15:12:56;5.10;99.90
40996;DHT22;26723;57.478;12.066;2023-03-14T15:16:09;5.00;99.90
40996;DHT22;26723;57.478;12.066;2023-03-14T15:19:21;4.90;99.90
40996;DHT22;26723;57.478;12.066;2023-03-14T15:22:32;5.00;99.90
40996;DHT22;26723;57.478;12.066;2023-03-14T15:25:42;5.00;99.90
40996;DHT22;26723;57.478;12.066;2023-03-14T15:29:01;4.90;99.90
40996;DHT22;26723;57.478;12.066;2023-03-14T15:32:11;4.90;99.90
40996;DHT22;26723;57.478;12.066;2023-03-14T15:35:20;4.90;99.90
40996;DHT22;26723;57.478;12.066;2023-03-14T15:38:28;4.80;99.90
40996;DHT22;26723;57.478;12.066;2023-03-14T15:41:38;4.80;99.90
40996;DHT22;26723;57.478;12.066;2023-03-14T15:44:47;4.60;99.90
40996;DHT22;26723;57.478;12.066;2023-03-14T15:47:55;4.50;99.90
40996;DHT22;26723;57.478;12.066;2023-03-14T15:51:04;4.40;99.90
40996;DHT22;26723;57.478;12.066;2023-03-14T15:54:12;4.50;99.90
40996;DHT22;26723;57.478;12.066;2023-03-14T15:57:22;4.40;99.90
40996;DHT22;26723;57.478;12.066;2023-03-14T16:00:32;4.50;99.90
40996;DHT22;26723;57.478;12.066;2023-03-14T16:03:42;4.60;99.90
40996;DHT22;26723;57.478;12.066;2023-03-14T16:06:52;4.50;99.90
40996;DHT22;26723;57.478;12.066;2023-03-14T16:10:00;4.50;99.90
40996;DHT22;26723;57.478;12.066;2023-03-14T16:13:11;4.30;99.90
40996;DHT22;26723;57.478;12.066;2023-03-14T16:16:20;4.20;99.90
40996;DHT22;26723;57.478;12.066;2023-03-14T16:19:28;4.20;99.90
40996;DHT22;26723;57.478;12.066;2023-03-14T16:22:38;4.10;99.90
40996;DHT22;26723;57.478;12.066;2023-03-14T16:25:46;4.10;99.90
40996;DHT22;26723;57.478;12.066;2023-03-14T16:28:56;4.10;99.90
40996;DHT22;26723;57.478;12.066;2023-03-14T16:32:05;4.00;99.90
40996;DHT22;26723;57.478;12.066;2023-03-14T16:35:14;3.90;99.90
40996;DHT22;26723;57.478;12.066;2023-03-14T16:38:23;3.90;99.90
40996;DHT22;26723;57.478;12.066;2023-03-14T16:41:32;3.80;99.90
40996;DHT22;26723;57.478;12.066;2023-03-14T16:44:42;3.80;99.90
40996;DHT22;26723;57.478;12.066;2023-03-14T16:47:51;3.80;99.90
40996;DHT22;26723;57.478;12.066;2023-03-14T16:50:59;3.80;99.90
40996;DHT22;26723;57.478;12.066;2023-03-14T16:54:07;3.70;99.90
40996;DHT22;26723;57.478;12.066;2023-03-14T16:57:16;3.70;99.90
40996;DHT22;26723;57.478;12.066;2023-03-14T17:00:26;3.70;99.90
40996;DHT22;26723;57.478;12.066;2023-03-14T17:03:35;3.70;99.90
40996;DHT22;26723;57.478;12.066;2023-03-14T17:06:43;3.60;99.90
40996;DHT22;26723;57.478;12.066;2023-03-14T17:09:52;3.60;99.90
40996;DHT22;26723;57.478;12.066;2023-03-14T17:13:01;3.60;99.90
40996;DHT22;26723;57.478;12.066;2023-03-14T17:16:11;3.60;99.90
40996;DHT22;26723;57.478;12.066;2023-03-14T17:19:20;3.50;99.90
40996;DHT22;26723;57.478;12.066;2023-03-14T17:22:30;3.50;99.90
40996;DHT22;26723;57.478;12.066;2023-03-14T17:25:38;3.40;99.90
40996;DHT22;26723;57.478;12.066;2023-03-14T17:28:47;3.40;99.90
40996;DHT22;26723;57.478;12.066;2023-03-14T17:31:57;3.30;99.90
40996;DHT22;26723;57.478;12.066;2023-03-14T17:35:06;3.20;99.90
40996;DHT22;26723;57.478;12.066;2023-03-14T17:38:14;3.20;99.90
40996;DHT22;26723;57.478;12.066;2023-03-14T17:41:22;3.10;99.90
40996;DHT22;26723;57.478;12.066;2023-03-14T17:44:31;3.20;99.90
40996;DHT22;26723;57.478;12.066;2023-03-14T17:47:41;3.20;99.90
40996;DHT22;26723;57.478;12.066;2023-03-14T17:50:49;3.10;99.90
40996;DHT22;26723;57.478;12.066;2023-03-14T17:53:59;3.10;99.90
40996;DHT22;26723;57.478;12.066;2023-03-14T17:57:07;3.10;99.90
40996;DHT22;26723;57.478;12.066;2023-03-14T18:00:16;3.10;99.90
40996;DHT22;26723;57.478;12.066;2023-03-14T18:03:27;3.10;99.90
40996;DHT22;26723;57.478;12.066;2023-03-14T18:06:35;3.00;99.90
40996;DHT22;26723;57.478;12.066;2023-03-14T18:09:44;3.10;99.90
40996;DHT22;26723;57.478;12.066;2023-03-14T18:12:52;3.00;99.90
40996;DHT22;26723;57.478;12.066;2023-03-14T18:16:01;2.90;99.90
40996;DHT22;26723;57.478;12.066;2023-03-14T18:19:10;2.90;99.90
40996;DHT22;26723;57.478;12.066;2023-03-14T18:22:19;2.90;99.90
40996;DHT22;26723;57.478;12.066;2023-03-14T18:25:27;2.90;99.90
40996;DHT22;26723;57.478;12.066;2023-03-14T18:28:36;2.90;99.90
40996;DHT22;26723;57.478;12.066;2023-03-14T18:31:44;2.80;99.90
40996;DHT22;26723;57.478;12.066;2023-03-14T18:34:54;2.70;99.90
40996;DHT22;26723;57.478;12.066;2023-03-14T18:38:03;2.60;99.90
40996;DHT22;26723;57.478;12.066;2023-03-14T18:41:13;2.70;99.90
40996;DHT22;26723;57.478;12.066;2023-03-14T18:44:22;2.70;99.90
40996;DHT22;26723;57.478;12.066;2023-03-14T18:47:30;2.70;99.90
40996;DHT22;26723;57.478;12.066;2023-03-14T18:50:43;2.60;99.90
40996;DHT22;26723;57.478;12.066;2023-03-14T18:53:51;2.60;99.90
40996;DHT22;26723;57.478;12.066;2023-03-14T18:57:14;2.50;99.90
40996;DHT22;26723;57.478;12.066;2023-03-14T19:00:22;2.50;99.90
40996;DHT22;26723;57.478;12.066;2023-03-14T19:03:33;2.50;99.90
40996;DHT22;26723;57.478;12.066;2023-03-14T19:06:45;2.40;99.90
40996;DHT22;26723;57.478;12.066;2023-03-14T19:09:53;2.40;99.90
40996;DHT22;26723;57.478;12.066;2023-03-14T19:13:02;2.40;99.90
40996;DHT22;26723;57.478;12.066;2023-03-14T19:16:11;2.40;99.90
40996;DHT22;26723;57.478;12.066;2023-03-14T19:19:19;2.50;99.90
40996;DHT22;26723;57.478;12.066;2023-03-14T19:22:29;2.40;99.90
40996;DHT22;26723;57.478;12.066;2023-03-14T19:25:39;2.40;99.90
40996;DHT22;26723;57.478;12.066;2023-03-14T19:28:49;2.40;99.90
40996;DHT22;26723;57.478;12.066;2023-03-14T19:31:59;2.40;99.90
40996;DHT22;26723;57.478;12.066;2023-03-14T19:35:08;2.30;99.90
40996;DHT22;26723;57.478;12.066;2023-03-14T19:38:18;2.30;99.90
40996;DHT22;26723;57.478;12.066;2023-03-14T19:41:27;2.30;99.90
40996;DHT22;26723;57.478;12.066;2023-03-14T19:44:35;2.30;99.90
40996;DHT22;26723;57.478;12.066;2023-03-14T19:47:44;2.30;99.90
40996;DHT22;26723;57.478;12.066;2023-03-14T19:50:52;2.20;99.90
40996;DHT22;26723;57.478;12.066;2023-03-14T19:54:03;2.20;99.90
40996;DHT22;26723;57.478;12.066;2023-03-14T19:57:11;2.20;99.90
40996;DHT22;26723;57.478;12.066;2023-03-14T20:00:20;2.20;99.90
40996;DHT22;26723;57.478;12.066;2023-03-14T20:03:29;2.20;99.90
40996;DHT22;26723;57.478;12.066;2023-03-14T20:06:38;2.20;99.90
40996;DHT22;26723;57.478;12.066;2023-03-14T20:09:49;2.10;99.90
40996;DHT22;26723;57.478;12.066;2023-03-14T20:12:58;2.10;99.90
40996;DHT22;26723;57.478;12.066;2023-03-14T20:16:15;2.10;99.90